DLH648 UACC-EDDF
Flight info
| Callsign | DLH648 |
|---|---|
| Flight time | N/A |
| Altitude | 38000 |
| Route | VETUB7G VETUB P574 OGANU N55 MASAV N161 GASBI/N0478F400 N161 LEYLA T916 MATAL M11 REBLO UM11 CRM UL746 ODERO DCT OPT DCT SOKRU DCT ARSIN DCT LNZ DCT SUBEN DCT AKINI T161 DEBHI DEBHI1B |
| Aircraft | A346/H-SDE2E3FGHIJ3J4J5M1P2RWXYZ/LB1D1 |
Departure
| Time | N/A |
|---|---|
| Airport | Nursultan Nazarbayev International Airport (UACC) |
Arrival
| Time | 2026-05-05 16:19 |
|---|---|
| Airport | Frankfurt Main Airport (EDDF) |
| Time | Latitude | Longitude | Altitude | Speed | Heading |
|---|---|---|---|---|---|
| 2026-05-05 13:57 | 42.58033 | 30.43276 | 40048 ft | 462 kts | 286° |
| 2026-05-05 13:57 | 42.59728 | 30.34877 | 40048 ft | 460 kts | 291° |
| 2026-05-05 13:58 | 42.62130 | 30.26830 | 40053 ft | 458 kts | 298° |
| 2026-05-05 13:58 | 42.65246 | 30.19289 | 40050 ft | 457 kts | 305° |
| 2026-05-05 13:59 | 42.70884 | 30.08934 | 40058 ft | 456 kts | 309° |
| 2026-05-05 14:00 | 42.76063 | 29.99807 | 40062 ft | 456 kts | 309° |
| 2026-05-05 14:00 | 42.80555 | 29.91849 | 40062 ft | 456 kts | 309° |
| 2026-05-05 14:01 | 42.84416 | 29.84986 | 40063 ft | 456 kts | 309° |
| 2026-05-05 14:01 | 42.88273 | 29.78111 | 40065 ft | 456 kts | 309° |
| 2026-05-05 14:02 | 42.92131 | 29.71218 | 40057 ft | 456 kts | 309° |
| 2026-05-05 14:02 | 42.95359 | 29.65440 | 40071 ft | 456 kts | 309° |
| 2026-05-05 14:03 | 42.99206 | 29.58534 | 40066 ft | 456 kts | 309° |
| 2026-05-05 14:03 | 43.03021 | 29.51670 | 40069 ft | 456 kts | 309° |
| 2026-05-05 14:04 | 43.06858 | 29.44753 | 40069 ft | 456 kts | 309° |
| 2026-05-05 14:04 | 43.10692 | 29.37824 | 40071 ft | 456 kts | 309° |
| 2026-05-05 14:05 | 43.14520 | 29.30890 | 40072 ft | 456 kts | 309° |
| 2026-05-05 14:05 | 43.18350 | 29.23936 | 40072 ft | 456 kts | 309° |
| 2026-05-05 14:06 | 43.22174 | 29.16978 | 40065 ft | 456 kts | 308° |
| 2026-05-05 14:06 | 43.25995 | 29.10009 | 40069 ft | 457 kts | 308° |
| 2026-05-05 14:07 | 43.29807 | 29.03036 | 40072 ft | 457 kts | 308° |
| 2026-05-05 14:07 | 43.33618 | 28.96052 | 40064 ft | 457 kts | 308° |
| 2026-05-05 14:08 | 43.37426 | 28.89056 | 40069 ft | 456 kts | 308° |
| 2026-05-05 14:08 | 43.41226 | 28.82058 | 40073 ft | 457 kts | 308° |
| 2026-05-05 14:09 | 43.45027 | 28.75041 | 40074 ft | 457 kts | 308° |
| 2026-05-05 14:09 | 43.48824 | 28.68016 | 40067 ft | 457 kts | 308° |
| 2026-05-05 14:10 | 43.52591 | 28.61027 | 40074 ft | 457 kts | 308° |
| 2026-05-05 14:10 | 43.56375 | 28.53992 | 40069 ft | 457 kts | 308° |
| 2026-05-05 14:11 | 43.60159 | 28.46941 | 40069 ft | 457 kts | 308° |
| 2026-05-05 14:11 | 43.63940 | 28.39878 | 40062 ft | 457 kts | 308° |
| 2026-05-05 14:12 | 43.67715 | 28.32807 | 40063 ft | 457 kts | 308° |
| 2026-05-05 14:12 | 43.71487 | 28.25727 | 40055 ft | 457 kts | 308° |
| 2026-05-05 14:13 | 43.75254 | 28.18636 | 40057 ft | 457 kts | 308° |
| 2026-05-05 14:13 | 43.79011 | 28.11549 | 40049 ft | 457 kts | 308° |
| 2026-05-05 14:14 | 43.82771 | 28.04442 | 40041 ft | 457 kts | 307° |
| 2026-05-05 14:14 | 43.86525 | 27.97326 | 40041 ft | 457 kts | 307° |
| 2026-05-05 14:15 | 43.90281 | 27.90187 | 40030 ft | 457 kts | 307° |
| 2026-05-05 14:15 | 43.94024 | 27.83058 | 40030 ft | 456 kts | 307° |
| 2026-05-05 14:16 | 43.97761 | 27.75922 | 40031 ft | 456 kts | 307° |
| 2026-05-05 14:16 | 44.01461 | 27.68841 | 40025 ft | 456 kts | 307° |
| 2026-05-05 14:17 | 44.05214 | 27.61638 | 40022 ft | 456 kts | 307° |
| 2026-05-05 14:17 | 44.08909 | 27.54530 | 40020 ft | 456 kts | 307° |
| 2026-05-05 14:18 | 44.12626 | 27.47366 | 40031 ft | 456 kts | 307° |
| 2026-05-05 14:18 | 44.16337 | 27.40192 | 40013 ft | 456 kts | 307° |
| 2026-05-05 14:19 | 44.20044 | 27.33009 | 40017 ft | 456 kts | 307° |
| 2026-05-05 14:19 | 44.23746 | 27.25820 | 40018 ft | 456 kts | 307° |
| 2026-05-05 14:20 | 44.27441 | 27.18625 | 40014 ft | 456 kts | 307° |
| 2026-05-05 14:20 | 44.31131 | 27.11421 | 40020 ft | 456 kts | 307° |
| 2026-05-05 14:21 | 44.34817 | 27.04210 | 40006 ft | 456 kts | 307° |
| 2026-05-05 14:21 | 44.38500 | 26.96986 | 40012 ft | 456 kts | 307° |
| 2026-05-05 14:22 | 44.42180 | 26.89750 | 40020 ft | 456 kts | 307° |
| 2026-05-05 14:22 | 44.45856 | 26.82505 | 40017 ft | 456 kts | 307° |
| 2026-05-05 14:23 | 44.49525 | 26.75257 | 40013 ft | 456 kts | 307° |
| 2026-05-05 14:23 | 44.53193 | 26.67996 | 40011 ft | 456 kts | 307° |
| 2026-05-05 14:24 | 44.56843 | 26.60711 | 40007 ft | 456 kts | 305° |
| 2026-05-05 14:24 | 44.60090 | 26.53111 | 39996 ft | 457 kts | 299° |
| 2026-05-05 14:25 | 44.62863 | 26.45061 | 40001 ft | 458 kts | 296° |
| 2026-05-05 14:25 | 44.65544 | 26.36940 | 40002 ft | 458 kts | 296° |
| 2026-05-05 14:26 | 44.68222 | 26.28813 | 40005 ft | 458 kts | 296° |
| 2026-05-05 14:26 | 44.70898 | 26.20683 | 40006 ft | 457 kts | 296° |
| 2026-05-05 14:27 | 44.73567 | 26.12552 | 40012 ft | 457 kts | 296° |
| 2026-05-05 14:27 | 44.76229 | 26.04424 | 40012 ft | 457 kts | 296° |
| 2026-05-05 14:28 | 44.78883 | 25.96292 | 40011 ft | 457 kts | 296° |
| 2026-05-05 14:28 | 44.81537 | 25.88140 | 39996 ft | 457 kts | 296° |
| 2026-05-05 14:29 | 44.84183 | 25.79986 | 39996 ft | 457 kts | 296° |
| 2026-05-05 14:29 | 44.86819 | 25.71832 | 39994 ft | 457 kts | 296° |
| 2026-05-05 14:30 | 44.89453 | 25.63664 | 39997 ft | 457 kts | 296° |
| 2026-05-05 14:30 | 44.92081 | 25.55493 | 39992 ft | 456 kts | 296° |
| 2026-05-05 14:31 | 44.94699 | 25.47329 | 39989 ft | 456 kts | 296° |
| 2026-05-05 14:31 | 44.97310 | 25.39160 | 39993 ft | 456 kts | 296° |
| 2026-05-05 14:32 | 44.99965 | 25.31019 | 39992 ft | 455 kts | 297° |
| 2026-05-05 14:32 | 45.02774 | 25.23004 | 39990 ft | 454 kts | 298° |
| 2026-05-05 14:33 | 45.05564 | 25.15070 | 39993 ft | 453 kts | 297° |
| 2026-05-05 14:33 | 45.08366 | 25.07074 | 39989 ft | 453 kts | 297° |
| 2026-05-05 14:34 | 45.11159 | 24.99082 | 39987 ft | 453 kts | 297° |
| 2026-05-05 14:34 | 45.13945 | 24.91082 | 39986 ft | 451 kts | 297° |
| 2026-05-05 14:35 | 45.16719 | 24.83092 | 39983 ft | 451 kts | 297° |
| 2026-05-05 14:35 | 45.19480 | 24.75114 | 39978 ft | 451 kts | 297° |
| 2026-05-05 14:36 | 45.22239 | 24.67121 | 39979 ft | 451 kts | 297° |
| 2026-05-05 14:36 | 45.24991 | 24.59125 | 39976 ft | 450 kts | 297° |
| 2026-05-05 14:37 | 45.27731 | 24.51136 | 39981 ft | 449 kts | 297° |
| 2026-05-05 14:37 | 45.30466 | 24.43139 | 39981 ft | 449 kts | 297° |
| 2026-05-05 14:38 | 45.33194 | 24.35140 | 39980 ft | 449 kts | 297° |
| 2026-05-05 14:38 | 45.35900 | 24.27183 | 39974 ft | 449 kts | 297° |
| 2026-05-05 14:39 | 45.38633 | 24.19116 | 39990 ft | 449 kts | 297° |
| 2026-05-05 14:39 | 45.41344 | 24.11095 | 39993 ft | 449 kts | 297° |
| 2026-05-05 14:40 | 45.44049 | 24.03066 | 39992 ft | 449 kts | 297° |
| 2026-05-05 14:40 | 45.46747 | 23.95038 | 39994 ft | 449 kts | 297° |
| 2026-05-05 14:41 | 45.49423 | 23.87045 | 39997 ft | 449 kts | 297° |
| 2026-05-05 14:41 | 45.52108 | 23.79001 | 39993 ft | 449 kts | 296° |
| 2026-05-05 14:42 | 45.54789 | 23.70947 | 39997 ft | 449 kts | 296° |
| 2026-05-05 14:42 | 45.57464 | 23.62883 | 39993 ft | 449 kts | 296° |
| 2026-05-05 14:43 | 45.60134 | 23.54812 | 39989 ft | 449 kts | 296° |
| 2026-05-05 14:43 | 45.62797 | 23.46734 | 39988 ft | 449 kts | 296° |
| 2026-05-05 14:44 | 45.65453 | 23.38656 | 39976 ft | 449 kts | 296° |
| 2026-05-05 14:44 | 45.68105 | 23.30565 | 39968 ft | 448 kts | 296° |
| 2026-05-05 14:45 | 45.70745 | 23.22483 | 39969 ft | 447 kts | 296° |
| 2026-05-05 14:45 | 45.73378 | 23.14399 | 39959 ft | 447 kts | 296° |
| 2026-05-05 14:46 | 45.76006 | 23.06307 | 39960 ft | 447 kts | 296° |
| 2026-05-05 14:46 | 45.78625 | 22.98216 | 39944 ft | 448 kts | 296° |
| 2026-05-05 14:47 | 45.81240 | 22.90115 | 39948 ft | 448 kts | 296° |
| 2026-05-05 14:47 | 45.83851 | 22.81996 | 39945 ft | 448 kts | 296° |
| 2026-05-05 14:48 | 45.86457 | 22.73869 | 39953 ft | 448 kts | 296° |
| 2026-05-05 14:48 | 45.89039 | 22.65789 | 39965 ft | 448 kts | 296° |
| 2026-05-05 14:49 | 45.91632 | 22.57658 | 39959 ft | 448 kts | 295° |
| 2026-05-05 14:49 | 45.94220 | 22.49508 | 39961 ft | 448 kts | 295° |
| 2026-05-05 14:50 | 45.96801 | 22.41353 | 39950 ft | 448 kts | 295° |
| 2026-05-05 14:50 | 45.99377 | 22.33191 | 39945 ft | 447 kts | 295° |
| 2026-05-05 14:51 | 46.01947 | 22.25030 | 39958 ft | 448 kts | 295° |
| 2026-05-05 14:51 | 46.04514 | 22.16841 | 39958 ft | 448 kts | 295° |
| 2026-05-05 14:52 | 46.07074 | 22.08651 | 39955 ft | 448 kts | 295° |
| 2026-05-05 14:52 | 46.09631 | 22.00445 | 39959 ft | 448 kts | 295° |
| 2026-05-05 14:53 | 46.11752 | 21.93621 | 39947 ft | 448 kts | 295° |
| 2026-05-05 14:53 | 46.14295 | 21.85415 | 39948 ft | 447 kts | 294° |
| 2026-05-05 14:54 | 46.16830 | 21.77203 | 39945 ft | 448 kts | 294° |
| 2026-05-05 14:54 | 46.19765 | 21.67660 | 39942 ft | 447 kts | 294° |
| 2026-05-05 14:55 | 46.21880 | 21.60767 | 39943 ft | 447 kts | 294° |
| 2026-05-05 14:55 | 46.24394 | 21.52549 | 39952 ft | 447 kts | 294° |
| 2026-05-05 14:56 | 46.26901 | 21.44318 | 39957 ft | 447 kts | 294° |
| 2026-05-05 14:56 | 46.29386 | 21.36137 | 39959 ft | 447 kts | 294° |
| 2026-05-05 14:57 | 46.31882 | 21.27893 | 39958 ft | 447 kts | 294° |
| 2026-05-05 14:57 | 46.34374 | 21.19643 | 39956 ft | 447 kts | 294° |
| 2026-05-05 14:58 | 46.36854 | 21.11393 | 39946 ft | 447 kts | 294° |
| 2026-05-05 14:58 | 46.39332 | 21.03128 | 39942 ft | 447 kts | 294° |
| 2026-05-05 14:59 | 46.41802 | 20.94860 | 39925 ft | 447 kts | 294° |
| 2026-05-05 14:59 | 46.44269 | 20.86586 | 39921 ft | 447 kts | 293° |
| 2026-05-05 15:00 | 46.46317 | 20.79684 | 39923 ft | 447 kts | 293° |
| 2026-05-05 15:00 | 46.49189 | 20.69979 | 39924 ft | 447 kts | 293° |
| 2026-05-05 15:01 | 46.51640 | 20.61664 | 39920 ft | 447 kts | 293° |
| 2026-05-05 15:01 | 46.54089 | 20.53337 | 39919 ft | 448 kts | 293° |
| 2026-05-05 15:02 | 46.56532 | 20.44994 | 39919 ft | 448 kts | 292° |
| 2026-05-05 15:02 | 46.58970 | 20.36639 | 39919 ft | 448 kts | 292° |
| 2026-05-05 15:03 | 46.61401 | 20.28280 | 39921 ft | 448 kts | 292° |
| 2026-05-05 15:03 | 46.63825 | 20.19918 | 39918 ft | 448 kts | 292° |
| 2026-05-05 15:04 | 46.66242 | 20.11552 | 39913 ft | 448 kts | 292° |
| 2026-05-05 15:04 | 46.68652 | 20.03180 | 39919 ft | 448 kts | 292° |
| 2026-05-05 15:05 | 46.72257 | 19.90608 | 39926 ft | 448 kts | 292° |
| 2026-05-05 15:06 | 46.74653 | 19.82218 | 39924 ft | 448 kts | 292° |
| 2026-05-05 15:06 | 46.77028 | 19.73870 | 39924 ft | 448 kts | 292° |
| 2026-05-05 15:07 | 46.79430 | 19.65394 | 39908 ft | 448 kts | 292° |
| 2026-05-05 15:07 | 46.81794 | 19.57027 | 39907 ft | 448 kts | 292° |
| 2026-05-05 15:08 | 46.84184 | 19.48541 | 39912 ft | 448 kts | 292° |
| 2026-05-05 15:08 | 46.86534 | 19.40166 | 39903 ft | 448 kts | 291° |
| 2026-05-05 15:09 | 46.88890 | 19.31735 | 39908 ft | 448 kts | 291° |
| 2026-05-05 15:09 | 46.91245 | 19.23281 | 39911 ft | 448 kts | 291° |
| 2026-05-05 15:10 | 46.93592 | 19.14827 | 39913 ft | 448 kts | 291° |
| 2026-05-05 15:10 | 46.95931 | 19.06379 | 39900 ft | 447 kts | 291° |
| 2026-05-05 15:11 | 46.98258 | 18.97931 | 39904 ft | 447 kts | 291° |
| 2026-05-05 15:11 | 47.00582 | 18.89470 | 39903 ft | 448 kts | 291° |
| 2026-05-05 15:12 | 47.02901 | 18.80997 | 39903 ft | 448 kts | 291° |
| 2026-05-05 15:12 | 47.05214 | 18.72527 | 39903 ft | 445 kts | 291° |
| 2026-05-05 15:13 | 47.07510 | 18.64071 | 39900 ft | 446 kts | 291° |
| 2026-05-05 15:13 | 47.09808 | 18.55580 | 39904 ft | 448 kts | 291° |
| 2026-05-05 15:14 | 47.12100 | 18.47091 | 39902 ft | 446 kts | 291° |
| 2026-05-05 15:14 | 47.14384 | 18.38605 | 39918 ft | 445 kts | 290° |
| 2026-05-05 15:15 | 47.16645 | 18.30162 | 39907 ft | 444 kts | 290° |
| 2026-05-05 15:15 | 47.18899 | 18.21710 | 39906 ft | 445 kts | 290° |
| 2026-05-05 15:16 | 47.21160 | 18.13218 | 39906 ft | 443 kts | 290° |
| 2026-05-05 15:16 | 47.23402 | 18.04756 | 39910 ft | 441 kts | 290° |
| 2026-05-05 15:17 | 47.25622 | 17.96332 | 39900 ft | 443 kts | 290° |
| 2026-05-05 15:17 | 47.27835 | 17.87923 | 39901 ft | 444 kts | 290° |
| 2026-05-05 15:18 | 47.30064 | 17.79436 | 39905 ft | 442 kts | 289° |
| 2026-05-05 15:18 | 47.32275 | 17.70972 | 39905 ft | 442 kts | 289° |
| 2026-05-05 15:19 | 47.34470 | 17.62525 | 39907 ft | 442 kts | 290° |
| 2026-05-05 15:19 | 47.36666 | 17.54045 | 39903 ft | 443 kts | 290° |
| 2026-05-05 15:20 | 47.38872 | 17.45521 | 39913 ft | 443 kts | 289° |
| 2026-05-05 15:20 | 47.41060 | 17.37030 | 39906 ft | 441 kts | 289° |
| 2026-05-05 15:21 | 47.43230 | 17.28551 | 39900 ft | 441 kts | 289° |
| 2026-05-05 15:21 | 47.45395 | 17.20079 | 39886 ft | 441 kts | 289° |
| 2026-05-05 15:22 | 47.47570 | 17.11556 | 39877 ft | 442 kts | 289° |
| 2026-05-05 15:22 | 47.49725 | 17.03062 | 39860 ft | 440 kts | 288° |
| 2026-05-05 15:23 | 47.51853 | 16.94629 | 39859 ft | 438 kts | 289° |
| 2026-05-05 15:23 | 47.53992 | 16.86151 | 39845 ft | 439 kts | 289° |
| 2026-05-05 15:24 | 47.56128 | 16.77642 | 39850 ft | 441 kts | 288° |
| 2026-05-05 15:24 | 47.58306 | 16.69172 | 39848 ft | 439 kts | 289° |
| 2026-05-05 15:25 | 47.60522 | 16.60783 | 39833 ft | 435 kts | 289° |
| 2026-05-05 15:25 | 47.62733 | 16.52364 | 39824 ft | 438 kts | 289° |
| 2026-05-05 15:26 | 47.64958 | 16.43881 | 39816 ft | 442 kts | 289° |
| 2026-05-05 15:26 | 47.67175 | 16.35403 | 39810 ft | 440 kts | 289° |
| 2026-05-05 15:27 | 47.69349 | 16.27015 | 39802 ft | 438 kts | 288° |
| 2026-05-05 15:27 | 47.71533 | 16.18556 | 39808 ft | 439 kts | 289° |
| 2026-05-05 15:28 | 47.73731 | 16.10039 | 39802 ft | 443 kts | 290° |
| 2026-05-05 15:28 | 47.75939 | 16.01489 | 39802 ft | 440 kts | 289° |
| 2026-05-05 15:29 | 47.78117 | 15.92986 | 39803 ft | 438 kts | 288° |
| 2026-05-05 15:29 | 47.80274 | 15.84479 | 39798 ft | 441 kts | 289° |
| 2026-05-05 15:30 | 47.82446 | 15.75950 | 39798 ft | 440 kts | 288° |
| 2026-05-05 15:30 | 47.84605 | 15.67441 | 39784 ft | 437 kts | 288° |
| 2026-05-05 15:31 | 47.86745 | 15.58958 | 39789 ft | 435 kts | 288° |
| 2026-05-05 15:31 | 47.88846 | 15.50550 | 39768 ft | 435 kts | 289° |
| 2026-05-05 15:32 | 47.90968 | 15.42064 | 39758 ft | 438 kts | 289° |
| 2026-05-05 15:32 | 47.93113 | 15.33492 | 39767 ft | 441 kts | 288° |
| 2026-05-05 15:33 | 47.95249 | 15.24905 | 39758 ft | 440 kts | 288° |
| 2026-05-05 15:33 | 47.97368 | 15.16338 | 39749 ft | 440 kts | 288° |
| 2026-05-05 15:34 | 47.99486 | 15.07746 | 39741 ft | 440 kts | 288° |
| 2026-05-05 15:34 | 48.01582 | 14.99202 | 39749 ft | 442 kts | 288° |
| 2026-05-05 15:35 | 48.03696 | 14.90565 | 39736 ft | 442 kts | 288° |
| 2026-05-05 15:35 | 48.05803 | 14.81918 | 39731 ft | 442 kts | 288° |
| 2026-05-05 15:36 | 48.07903 | 14.73265 | 39725 ft | 442 kts | 288° |
| 2026-05-05 15:36 | 48.09996 | 14.64607 | 39728 ft | 442 kts | 288° |
| 2026-05-05 15:37 | 48.12085 | 14.55945 | 39727 ft | 442 kts | 288° |
| 2026-05-05 15:37 | 48.14163 | 14.47285 | 39714 ft | 442 kts | 287° |
| 2026-05-05 15:38 | 48.16237 | 14.38607 | 39717 ft | 442 kts | 287° |
| 2026-05-05 15:38 | 48.18307 | 14.29924 | 39715 ft | 442 kts | 287° |
| 2026-05-05 15:39 | 48.20372 | 14.21234 | 39722 ft | 442 kts | 287° |
| 2026-05-05 15:39 | 48.22427 | 14.12530 | 39708 ft | 442 kts | 287° |
| 2026-05-05 15:40 | 48.24679 | 14.03919 | 39726 ft | 443 kts | 290° |
| 2026-05-05 15:40 | 48.27012 | 13.95369 | 39735 ft | 443 kts | 290° |
| 2026-05-05 15:41 | 48.29347 | 13.86792 | 39732 ft | 443 kts | 290° |
| 2026-05-05 15:41 | 48.31660 | 13.78274 | 39736 ft | 443 kts | 289° |
| 2026-05-05 15:42 | 48.33992 | 13.69632 | 39739 ft | 442 kts | 289° |
| 2026-05-05 15:42 | 48.36286 | 13.61101 | 39737 ft | 442 kts | 289° |
| 2026-05-05 15:43 | 48.38590 | 13.52507 | 39739 ft | 442 kts | 289° |
| 2026-05-05 15:43 | 48.40891 | 13.43907 | 39745 ft | 443 kts | 289° |
| 2026-05-05 15:44 | 48.42813 | 13.36690 | 39742 ft | 443 kts | 288° |
| 2026-05-05 15:44 | 48.45097 | 13.28051 | 39739 ft | 443 kts | 288° |
| 2026-05-05 15:45 | 48.47359 | 13.19462 | 39741 ft | 443 kts | 288° |
| 2026-05-05 15:45 | 48.49633 | 13.10811 | 39740 ft | 443 kts | 288° |
| 2026-05-05 15:46 | 48.51903 | 13.02150 | 39741 ft | 444 kts | 288° |
| 2026-05-05 15:46 | 48.54167 | 12.93485 | 39741 ft | 444 kts | 288° |
| 2026-05-05 15:47 | 48.56430 | 12.84789 | 39741 ft | 444 kts | 288° |
| 2026-05-05 15:47 | 48.58686 | 12.76090 | 39739 ft | 444 kts | 288° |
| 2026-05-05 15:48 | 48.60937 | 12.67379 | 39739 ft | 444 kts | 288° |
| 2026-05-05 15:48 | 48.63179 | 12.58671 | 39741 ft | 444 kts | 288° |
| 2026-05-05 15:49 | 48.65417 | 12.49945 | 39741 ft | 444 kts | 288° |
| 2026-05-05 15:49 | 48.67648 | 12.41215 | 39744 ft | 444 kts | 288° |
| 2026-05-05 15:50 | 48.69875 | 12.32479 | 39741 ft | 444 kts | 288° |
| 2026-05-05 15:50 | 48.72091 | 12.23742 | 39745 ft | 444 kts | 287° |
| 2026-05-05 15:51 | 48.74143 | 12.14976 | 39741 ft | 443 kts | 283° |
| 2026-05-05 15:51 | 48.74953 | 12.10499 | 39637 ft | 437 kts | 280° |
| 2026-05-05 15:51 | 48.75611 | 12.05955 | 39332 ft | 436 kts | 277° |
| 2026-05-05 15:51 | 48.76123 | 12.01466 | 39106 ft | 438 kts | 276° |
| 2026-05-05 15:52 | 48.76618 | 11.96905 | 38885 ft | 439 kts | 276° |
| 2026-05-05 15:52 | 48.77111 | 11.92332 | 38669 ft | 439 kts | 276° |
| 2026-05-05 15:52 | 48.77602 | 11.87766 | 38433 ft | 439 kts | 276° |
| 2026-05-05 15:52 | 48.78093 | 11.83183 | 38162 ft | 440 kts | 276° |
| 2026-05-05 15:53 | 48.78584 | 11.78597 | 37887 ft | 442 kts | 276° |
| 2026-05-05 15:53 | 48.79077 | 11.73977 | 37611 ft | 444 kts | 276° |
| 2026-05-05 15:53 | 48.79568 | 11.69343 | 37337 ft | 445 kts | 276° |
| 2026-05-05 15:53 | 48.80058 | 11.64694 | 37071 ft | 446 kts | 276° |
| 2026-05-05 15:54 | 48.80545 | 11.60046 | 36797 ft | 446 kts | 275° |
| 2026-05-05 15:54 | 48.81027 | 11.55394 | 36522 ft | 443 kts | 275° |
| 2026-05-05 15:54 | 48.81504 | 11.50800 | 36261 ft | 438 kts | 275° |
| 2026-05-05 15:54 | 48.81975 | 11.46230 | 35999 ft | 438 kts | 275° |
| 2026-05-05 15:55 | 48.82443 | 11.41663 | 35757 ft | 439 kts | 275° |
| 2026-05-05 15:55 | 48.82915 | 11.37063 | 35503 ft | 442 kts | 276° |
| 2026-05-05 15:55 | 48.83550 | 11.32527 | 35252 ft | 447 kts | 281° |
| 2026-05-05 15:55 | 48.84509 | 11.28018 | 35004 ft | 451 kts | 287° |
| 2026-05-05 15:56 | 48.85792 | 11.23643 | 34766 ft | 456 kts | 293° |
| 2026-05-05 15:56 | 48.87420 | 11.19399 | 34519 ft | 461 kts | 300° |
| 2026-05-05 15:56 | 48.89336 | 11.15466 | 34276 ft | 465 kts | 306° |
| 2026-05-05 15:56 | 48.91518 | 11.11882 | 34029 ft | 470 kts | 312° |
| 2026-05-05 15:57 | 48.93925 | 11.08493 | 33811 ft | 472 kts | 314° |
| 2026-05-05 15:57 | 48.96388 | 11.05172 | 33464 ft | 473 kts | 315° |
| 2026-05-05 15:57 | 48.98872 | 11.01772 | 33012 ft | 476 kts | 315° |
| 2026-05-05 15:57 | 49.01273 | 10.98430 | 32421 ft | 477 kts | 314° |
| 2026-05-05 15:58 | 49.03720 | 10.95000 | 31810 ft | 477 kts | 314° |
| 2026-05-05 15:58 | 49.06159 | 10.91567 | 31153 ft | 478 kts | 314° |
| 2026-05-05 15:58 | 49.08606 | 10.88115 | 30489 ft | 479 kts | 315° |
| 2026-05-05 15:58 | 49.11062 | 10.84644 | 29715 ft | 481 kts | 315° |
| 2026-05-05 15:59 | 49.13524 | 10.81161 | 28948 ft | 482 kts | 315° |
| 2026-05-05 15:59 | 49.15987 | 10.77675 | 28200 ft | 482 kts | 315° |
| 2026-05-05 15:59 | 49.18443 | 10.74192 | 27464 ft | 482 kts | 315° |
| 2026-05-05 15:59 | 49.20837 | 10.70616 | 26909 ft | 481 kts | 312° |
| 2026-05-05 16:00 | 49.23178 | 10.66961 | 26470 ft | 478 kts | 312° |
| 2026-05-05 16:00 | 49.25480 | 10.63324 | 26018 ft | 474 kts | 312° |
| 2026-05-05 16:00 | 49.27770 | 10.59705 | 25550 ft | 471 kts | 312° |
| 2026-05-05 16:00 | 49.30040 | 10.56115 | 25072 ft | 467 kts | 312° |
| 2026-05-05 16:01 | 49.32291 | 10.52554 | 24621 ft | 462 kts | 312° |
| 2026-05-05 16:01 | 49.34492 | 10.48984 | 24140 ft | 458 kts | 310° |
| 2026-05-05 16:01 | 49.36554 | 10.45241 | 23870 ft | 459 kts | 306° |
| 2026-05-05 16:01 | 49.38472 | 10.41312 | 23828 ft | 460 kts | 303° |
| 2026-05-05 16:02 | 49.40321 | 10.37303 | 23804 ft | 460 kts | 302° |
| 2026-05-05 16:02 | 49.42155 | 10.33268 | 23757 ft | 460 kts | 302° |
| 2026-05-05 16:02 | 49.43985 | 10.29228 | 23261 ft | 459 kts | 303° |
| 2026-05-05 16:02 | 49.45804 | 10.25221 | 22599 ft | 454 kts | 303° |
| 2026-05-05 16:03 | 49.47604 | 10.21267 | 22096 ft | 447 kts | 303° |
| 2026-05-05 16:03 | 49.49368 | 10.17390 | 21594 ft | 439 kts | 303° |
| 2026-05-05 16:03 | 49.51109 | 10.13551 | 21113 ft | 433 kts | 303° |
| 2026-05-05 16:03 | 49.52822 | 10.09765 | 20659 ft | 429 kts | 303° |
| 2026-05-05 16:04 | 49.54520 | 10.06009 | 20185 ft | 425 kts | 303° |
| 2026-05-05 16:04 | 49.56200 | 10.02283 | 19728 ft | 421 kts | 303° |
| 2026-05-05 16:04 | 49.57856 | 9.98606 | 19271 ft | 417 kts | 303° |
| 2026-05-05 16:04 | 49.59501 | 9.94945 | 18794 ft | 414 kts | 302° |
| 2026-05-05 16:05 | 49.61134 | 9.91303 | 18368 ft | 411 kts | 302° |
| 2026-05-05 16:05 | 49.62755 | 9.87684 | 17849 ft | 407 kts | 302° |
| 2026-05-05 16:05 | 49.64360 | 9.84098 | 17365 ft | 404 kts | 303° |
| 2026-05-05 16:05 | 49.65957 | 9.80528 | 16884 ft | 400 kts | 302° |
| 2026-05-05 16:06 | 49.67526 | 9.77020 | 16392 ft | 393 kts | 303° |
| 2026-05-05 16:06 | 49.69072 | 9.73546 | 15971 ft | 391 kts | 302° |
| 2026-05-05 16:06 | 49.70607 | 9.70095 | 15538 ft | 389 kts | 302° |
| 2026-05-05 16:06 | 49.72138 | 9.66649 | 15090 ft | 387 kts | 302° |
| 2026-05-05 16:07 | 49.73659 | 9.63224 | 14636 ft | 386 kts | 302° |
| 2026-05-05 16:07 | 49.75176 | 9.59799 | 14175 ft | 384 kts | 302° |
| 2026-05-05 16:07 | 49.76681 | 9.56400 | 13741 ft | 382 kts | 302° |
| 2026-05-05 16:07 | 49.78179 | 9.53013 | 13252 ft | 380 kts | 302° |
| 2026-05-05 16:08 | 49.79678 | 9.49629 | 12784 ft | 378 kts | 302° |
| 2026-05-05 16:08 | 49.81159 | 9.46276 | 12319 ft | 375 kts | 302° |
| 2026-05-05 16:08 | 49.82624 | 9.42946 | 11869 ft | 372 kts | 302° |
| 2026-05-05 16:08 | 49.84067 | 9.39665 | 11405 ft | 364 kts | 303° |
| 2026-05-05 16:09 | 49.85422 | 9.36367 | 11002 ft | 365 kts | 299° |
| 2026-05-05 16:09 | 49.86981 | 9.33175 | 10879 ft | 379 kts | 315° |
| 2026-05-05 16:09 | 49.89164 | 9.30858 | 10860 ft | 382 kts | 330° |
| 2026-05-05 16:09 | 49.91533 | 9.28980 | 10838 ft | 383 kts | 333° |
| 2026-05-05 16:10 | 49.93916 | 9.27181 | 10731 ft | 376 kts | 334° |
| 2026-05-05 16:10 | 49.96260 | 9.25428 | 10123 ft | 373 kts | 334° |
| 2026-05-05 16:10 | 49.98572 | 9.23707 | 9222 ft | 362 kts | 334° |
| 2026-05-05 16:10 | 50.00783 | 9.22074 | 8677 ft | 343 kts | 334° |
| 2026-05-05 16:11 | 50.02881 | 9.20533 | 8199 ft | 324 kts | 334° |
| 2026-05-05 16:11 | 50.07659 | 9.14640 | 7002 ft | 278 kts | 304° |
| 2026-05-05 16:12 | 50.08798 | 9.12224 | 6406 ft | 275 kts | 304° |
| 2026-05-05 16:12 | 50.10320 | 9.06895 | 5201 ft | 266 kts | 284° |
| 2026-05-05 16:13 | 50.11790 | 8.98953 | 4564 ft | 242 kts | 283° |
| 2026-05-05 16:13 | 50.12234 | 8.96467 | 4385 ft | 233 kts | 277° |
| 2026-05-05 16:13 | 50.12222 | 8.93983 | 4140 ft | 227 kts | 257° |
| 2026-05-05 16:14 | 50.11326 | 8.89303 | 3999 ft | 225 kts | 249° |
| 2026-05-05 16:14 | 50.10259 | 8.84705 | 3868 ft | 225 kts | 248° |
| 2026-05-05 16:15 | 50.09166 | 8.80167 | 3320 ft | 218 kts | 248° |
| 2026-05-05 16:15 | 50.08121 | 8.75843 | 2731 ft | 207 kts | 248° |
| 2026-05-05 16:16 | 50.07161 | 8.71851 | 2166 ft | 188 kts | 249° |
| 2026-05-05 16:16 | 50.06291 | 8.68223 | 1705 ft | 168 kts | 250° |
| 2026-05-05 16:17 | 50.05533 | 8.65057 | 1257 ft | 144 kts | 250° |
| 2026-05-05 16:17 | 50.05195 | 8.63638 | 1056 ft | 137 kts | 249° |
| 2026-05-05 16:18 | 50.04522 | 8.60820 | 719 ft | 138 kts | 248° |
| 2026-05-05 16:18 | 50.04174 | 8.59365 | 529 ft | 144 kts | 249° |
| 2026-05-05 16:18 | 50.03592 | 8.56932 | 364 ft | 77 kts | 249° |
| 2026-05-05 16:19 | 50.03463 | 8.56382 | 366 ft | 39 kts | 253° |
| 2026-05-05 16:19 | 50.03439 | 8.56043 | 360 ft | 29 kts | 272° |
| 2026-05-05 16:19 | 50.03489 | 8.55487 | 354 ft | 22 kts | 265° |
| 2026-05-05 16:20 | 50.03367 | 8.54974 | 356 ft | 28 kts | 250° |
| 2026-05-05 16:20 | 50.03285 | 8.54514 | 354 ft | 7 kts | 298° |
| 2026-05-05 16:21 | 50.03413 | 8.54423 | 357 ft | 13 kts | 340° |
| 2026-05-05 16:22 | 50.03575 | 8.54330 | 357 ft | 0 kts | 340° |
| 2026-05-05 16:23 | 50.03618 | 8.54310 | 358 ft | 0 kts | 355° |
| 2026-05-05 16:25 | 50.03627 | 8.54311 | 359 ft | 7 kts | 4° |
| 2026-05-05 16:25 | 50.03671 | 8.54378 | 355 ft | 11 kts | 66° |
| 2026-05-05 16:26 | 50.03745 | 8.54680 | 354 ft | 18 kts | 69° |
| 2026-05-05 16:26 | 50.03848 | 8.55106 | 358 ft | 24 kts | 69° |
| 2026-05-05 16:27 | 50.03910 | 8.55361 | 361 ft | 26 kts | 69° |
| 2026-05-05 16:27 | 50.03968 | 8.55610 | 364 ft | 16 kts | 70° |
| 2026-05-05 16:27 | 50.03983 | 8.55678 | 362 ft | 4 kts | 70° |
| 2026-05-05 16:27 | 50.03997 | 8.55737 | 364 ft | 7 kts | 70° |
| 2026-05-05 16:28 | 50.04018 | 8.55828 | 365 ft | 8 kts | 69° |
| 2026-05-05 16:28 | 50.04020 | 8.55835 | 365 ft | 0 kts | 69° |
| 2026-05-05 16:28 | 50.04027 | 8.55864 | 366 ft | 7 kts | 69° |
| 2026-05-05 16:28 | 50.04050 | 8.55958 | 361 ft | 13 kts | 69° |
| 2026-05-05 16:29 | 50.04092 | 8.56131 | 364 ft | 19 kts | 69° |
| 2026-05-05 16:29 | 50.04142 | 8.56337 | 367 ft | 22 kts | 69° |
| 2026-05-05 16:29 | 50.04198 | 8.56572 | 367 ft | 24 kts | 70° |
| 2026-05-05 16:29 | 50.04243 | 8.56753 | 371 ft | 13 kts | 58° |
| 2026-05-05 16:30 | 50.04284 | 8.56803 | 372 ft | 2 kts | 20° |
| 2026-05-05 16:30 | 50.04305 | 8.56813 | 371 ft | 11 kts | 15° |
| 2026-05-05 16:30 | 50.04335 | 8.56824 | 372 ft | 5 kts | 12° |
| 2026-05-05 16:30 | 50.04408 | 8.56838 | 372 ft | 10 kts | 348° |
| 2026-05-05 16:31 | 50.04426 | 8.56736 | 371 ft | 14 kts | 248° |
| 2026-05-05 16:31 | 50.04386 | 8.56567 | 369 ft | 19 kts | 251° |
| 2026-05-05 16:31 | 50.04338 | 8.56350 | 366 ft | 23 kts | 251° |
| 2026-05-05 16:31 | 50.04300 | 8.56193 | 367 ft | 21 kts | 249° |
| 2026-05-05 16:32 | 50.04266 | 8.56023 | 365 ft | 14 kts | 276° |
| 2026-05-05 16:32 | 50.04343 | 8.55927 | 371 ft | 16 kts | 340° |
| 2026-05-05 16:32 | 50.04463 | 8.55925 | 369 ft | 19 kts | 13° |
| 2026-05-05 16:32 | 50.04567 | 8.56024 | 369 ft | 16 kts | 62° |
| 2026-05-05 16:33 | 50.04626 | 8.56070 | 369 ft | 7 kts | 341° |
| 2026-05-05 16:33 | 50.04634 | 8.56066 | 366 ft | 2 kts | 341° |
| 2026-05-05 16:33 | 50.04647 | 8.56059 | 370 ft | 3 kts | 341° |
| 2026-05-05 16:33 | 50.04660 | 8.56052 | 371 ft | 1 kts | 340° |
| 2026-05-05 16:34 | 50.04666 | 8.56049 | 371 ft | 1 kts | 340° |